createdAt,value
2022-09-13T00:00:41.111Z,7.63
2022-09-13T00:03:43.281Z,9.85
2022-09-13T00:06:47.581Z,7.88
2022-09-13T00:09:49.402Z,8.73
2022-09-13T00:12:51.744Z,7.85
2022-09-13T00:15:53.615Z,6.03
2022-09-13T00:18:56.368Z,9.82
2022-09-13T00:22:00.071Z,7.93
2022-09-13T00:25:06.795Z,8.30
2022-09-13T00:28:08.662Z,6.95
2022-09-13T00:31:11.510Z,9.00
2022-09-13T00:34:15.510Z,6.47
2022-09-13T00:37:17.361Z,12.40
2022-09-13T00:40:22.138Z,9.65
2022-09-13T00:43:47.629Z,8.70
2022-09-13T00:46:50.380Z,10.65
2022-09-13T00:49:58.914Z,6.85
2022-09-13T00:53:12.302Z,7.15
2022-09-13T00:56:29.200Z,7.22
2022-09-13T00:59:44.406Z,8.07
2022-09-13T01:03:06.689Z,7.53
2022-09-13T01:06:14.749Z,6.00
2022-09-13T01:09:16.751Z,6.88
2022-09-13T01:12:37.014Z,7.25
2022-09-13T01:15:39.119Z,7.30
2022-09-13T01:18:41.009Z,6.53
2022-09-13T01:22:14.184Z,7.18
2022-09-13T01:25:18.929Z,6.50
2022-09-13T01:28:57.778Z,8.65
2022-09-13T01:32:23.786Z,9.02
2022-09-13T01:35:58.138Z,6.20
2022-09-13T01:39:05.832Z,8.35
2022-09-13T01:42:19.786Z,10.38
2022-09-13T01:48:58.215Z,8.45
2022-09-13T01:52:25.787Z,10.60
2022-09-13T01:55:34.068Z,5.72
2022-09-13T01:58:35.864Z,7.03
2022-09-13T02:01:55.886Z,8.63
2022-09-13T02:05:07.098Z,8.50
2022-09-13T02:08:16.834Z,10.63
2022-09-13T02:11:20.607Z,8.57
2022-09-13T02:14:28.331Z,8.27
2022-09-13T02:17:36.980Z,8.50
2022-09-13T02:20:43.261Z,8.27
2022-09-13T02:23:51.212Z,7.70
2022-09-13T02:26:56.184Z,7.32
2022-09-13T02:30:06.489Z,7.47
2022-09-13T02:33:16.976Z,10.23
2022-09-13T02:36:29.648Z,7.68
2022-09-13T02:39:34.209Z,8.55
2022-09-13T02:42:44.730Z,9.38
2022-09-13T02:46:14.983Z,8.48
2022-09-13T02:49:28.845Z,7.55
2022-09-13T02:52:51.846Z,8.38
2022-09-13T02:56:14.774Z,7.25
2022-09-13T02:59:20.292Z,7.55
2022-09-13T03:02:25.979Z,6.78
2022-09-13T03:08:36.582Z,6.28
2022-09-13T03:12:05.113Z,9.10
2022-09-13T03:15:36.230Z,6.05
2022-09-13T03:18:51.306Z,7.05
2022-09-13T03:22:02.242Z,8.82
2022-09-13T03:25:46.442Z,8.32
2022-09-13T03:28:57.298Z,8.43
2022-09-13T03:32:06.444Z,8.65
2022-09-13T03:35:21.102Z,7.15
2022-09-13T03:38:37.454Z,12.13
2022-09-13T03:41:44.846Z,7.13
2022-09-13T03:44:49.573Z,8.43
2022-09-13T03:47:52.261Z,9.25
2022-09-13T03:50:54.730Z,9.15
2022-09-13T03:54:01.728Z,9.48
2022-09-13T03:57:21.008Z,6.28
2022-09-13T04:00:23.344Z,7.10
2022-09-13T04:06:28.880Z,11.35
2022-09-13T04:09:32.438Z,6.63
2022-09-13T04:12:34.510Z,7.13
2022-09-13T04:15:36.580Z,6.82
2022-09-13T04:18:38.650Z,9.40
2022-09-13T04:21:40.744Z,6.93
2022-09-13T04:27:44.925Z,6.85
2022-09-13T04:30:50.762Z,8.68
2022-09-13T04:33:54.799Z,8.95
2022-09-13T04:36:57.212Z,9.93
2022-09-13T04:43:01.761Z,8.93
2022-09-13T04:46:03.611Z,8.27
2022-09-13T04:49:05.810Z,8.55
2022-09-13T04:52:07.840Z,10.18
2022-09-13T04:55:12.282Z,9.02
2022-09-13T04:58:14.118Z,7.80
2022-09-13T05:01:16.022Z,8.18
2022-09-13T05:04:17.933Z,8.27
2022-09-13T05:07:19.801Z,8.07
2022-09-13T05:10:21.652Z,7.22
2022-09-13T05:13:23.550Z,9.05
2022-09-13T05:16:29.281Z,8.80
2022-09-13T05:19:31.115Z,8.82
2022-09-13T05:22:36.357Z,6.70
2022-09-13T05:25:38.171Z,6.85
2022-09-13T05:28:40.074Z,7.35
2022-09-13T05:31:43.514Z,7.57
2022-09-13T05:34:45.353Z,6.88
2022-09-13T05:37:49.769Z,6.90
2022-09-13T05:40:59.264Z,8.00
2022-09-13T05:44:10.333Z,5.82
2022-09-13T05:47:14.676Z,9.10
2022-09-13T05:50:33.227Z,7.65
2022-09-13T05:53:40.145Z,7.78
2022-09-13T05:56:42.096Z,9.77
2022-09-13T05:59:44.156Z,9.43
2022-09-13T06:02:46.076Z,7.68
2022-09-13T06:05:48.859Z,7.43
2022-09-13T06:11:56.620Z,10.60
2022-09-13T06:14:58.490Z,6.80
2022-09-13T06:18:00.302Z,7.22
2022-09-13T06:21:10.705Z,7.18
2022-09-13T06:24:12.538Z,9.18
2022-09-13T06:27:14.516Z,7.65
2022-09-13T06:30:16.438Z,7.88
2022-09-13T06:33:18.311Z,8.27
2022-09-13T06:36:20.139Z,7.75
2022-09-13T06:39:22.109Z,7.15
2022-09-13T06:42:23.983Z,6.70
2022-09-13T06:45:26.461Z,6.90
2022-09-13T06:51:34.832Z,6.07
2022-09-13T06:54:36.783Z,7.22
2022-09-13T07:00:40.739Z,7.45
2022-09-13T07:03:51.090Z,7.03
2022-09-13T07:06:53.029Z,7.18
2022-09-13T07:12:56.636Z,6.15
2022-09-13T07:16:04.349Z,6.70
2022-09-13T07:19:12.230Z,9.25
2022-09-13T07:22:14.119Z,8.70
2022-09-13T07:25:16.162Z,8.13
2022-09-13T07:28:21.196Z,7.13
2022-09-13T07:31:25.584Z,8.65
2022-09-13T07:34:27.675Z,5.63
2022-09-13T07:40:31.309Z,7.00
2022-09-13T07:43:33.987Z,6.10
2022-09-13T07:46:36.503Z,6.05
2022-09-13T07:49:38.381Z,6.43
2022-09-13T07:52:40.231Z,6.10
2022-09-13T07:55:42.067Z,7.35
2022-09-13T07:58:46.055Z,6.03
2022-09-13T08:01:51.687Z,6.68
2022-09-13T08:04:53.643Z,7.70
2022-09-13T08:07:55.467Z,6.10
2022-09-13T08:10:57.702Z,7.68
2022-09-13T08:14:00.233Z,5.80
2022-09-13T08:17:04.778Z,5.97
2022-09-13T08:20:10.340Z,6.75
2022-09-13T08:23:13.370Z,6.28
2022-09-13T08:26:15.513Z,7.38
2022-09-13T08:29:17.438Z,6.70
2022-09-13T08:32:19.271Z,6.97
2022-09-13T08:38:22.893Z,6.60
2022-09-13T08:44:52.936Z,5.32
2022-09-13T08:48:14.018Z,5.53
2022-09-13T08:51:28.825Z,4.97
2022-09-13T08:54:30.837Z,5.80
2022-09-13T08:57:42.950Z,5.38
2022-09-13T09:00:53.708Z,6.35
2022-09-13T09:04:26.767Z,6.95
2022-09-13T09:07:35.993Z,4.10
2022-09-13T09:10:42.404Z,4.95
2022-09-13T09:14:03.345Z,5.00
2022-09-13T09:17:17.052Z,5.18
2022-09-13T09:26:30.350Z,7.07
2022-09-13T09:29:33.511Z,8.52
2022-09-13T09:33:00.070Z,4.70
2022-09-13T09:36:40.871Z,5.50
2022-09-13T09:39:43.607Z,5.40
2022-09-13T09:42:48.358Z,6.18
2022-09-13T09:45:52.760Z,4.82
2022-09-13T09:49:01.216Z,5.57
2022-09-13T09:52:06.749Z,9.20
2022-09-13T09:55:18.388Z,3.95
2022-09-13T09:58:37.072Z,4.60
2022-09-13T10:01:39.088Z,4.55
2022-09-13T10:04:41.227Z,4.28
2022-09-13T10:07:43.241Z,4.28
2022-09-13T10:10:54.316Z,4.93
2022-09-13T10:14:03.436Z,5.22
2022-09-13T10:17:15.657Z,5.75
2022-09-13T10:20:22.311Z,4.75
2022-09-13T10:23:26.614Z,6.55
2022-09-13T10:26:32.778Z,6.93
2022-09-13T10:29:34.676Z,5.93
2022-09-13T10:32:37.236Z,4.53
2022-09-13T10:35:39.184Z,4.07
2022-09-13T10:38:51.144Z,5.60
2022-09-13T10:41:58.081Z,4.85
2022-09-13T10:45:03.401Z,5.50
2022-09-13T10:48:13.070Z,5.80
2022-09-13T11:03:38.528Z,4.25
2022-09-13T11:07:01.828Z,6.72
2022-09-13T11:10:25.946Z,4.18
2022-09-13T11:13:44.830Z,4.57
2022-09-13T11:17:20.624Z,6.38
2022-09-13T11:20:56.716Z,4.70
2022-09-13T11:24:04.366Z,6.93
2022-09-13T11:27:32.029Z,4.00
2022-09-13T11:30:45.527Z,6.30
2022-09-13T11:34:12.447Z,6.38
2022-09-13T11:37:45.248Z,4.40
2022-09-13T11:41:13.128Z,6.28
2022-09-13T11:44:30.070Z,3.95
2022-09-13T11:48:09.381Z,5.05
2022-09-13T11:51:32.924Z,6.10
2022-09-13T11:55:05.887Z,3.75
2022-09-13T11:58:17.933Z,4.95
2022-09-13T12:01:26.664Z,4.50
2022-09-13T12:04:43.083Z,5.32
2022-09-13T12:07:56.545Z,3.30
2022-09-13T12:11:19.071Z,4.55
2022-09-13T12:14:28.025Z,4.72
2022-09-13T12:17:37.945Z,4.97
2022-09-13T12:21:08.867Z,4.00
2022-09-13T12:24:21.893Z,4.00
2022-09-13T12:27:45.346Z,3.72
2022-09-13T12:30:58.656Z,4.13
2022-09-13T12:34:05.071Z,3.00
2022-09-13T12:37:11.392Z,3.15
2022-09-13T12:41:04.268Z,3.90
2022-09-13T12:44:35.025Z,4.18
2022-09-13T12:47:43.079Z,5.13
2022-09-13T12:50:59.785Z,3.13
2022-09-13T12:54:32.836Z,5.68
2022-09-13T12:57:55.600Z,4.82
2022-09-13T13:01:25.116Z,3.58
2022-09-13T13:04:32.218Z,3.38
2022-09-13T13:07:41.167Z,3.03
2022-09-13T13:10:43.627Z,5.15
2022-09-13T13:14:00.342Z,3.10
2022-09-13T13:17:39.417Z,4.78
2022-09-13T13:20:53.627Z,3.55
2022-09-13T13:24:17.499Z,4.32
2022-09-13T13:27:38.314Z,4.97
2022-09-13T13:30:49.964Z,4.30
2022-09-13T13:33:59.299Z,4.20
2022-09-13T13:37:24.409Z,3.72
2022-09-13T13:40:27.034Z,4.25
2022-09-13T13:43:31.837Z,3.42
2022-09-13T13:46:33.801Z,3.70
2022-09-13T13:49:38.736Z,3.38
2022-09-13T13:52:53.072Z,4.38
2022-09-13T13:56:19.950Z,3.20
2022-09-13T13:59:32.594Z,5.45
2022-09-13T14:02:49.530Z,3.58
2022-09-13T14:05:59.872Z,3.83
2022-09-13T14:09:33.264Z,2.85
2022-09-13T14:12:56.305Z,3.60
2022-09-13T14:16:31.061Z,3.72
2022-09-13T14:19:47.099Z,3.40
2022-09-13T14:22:49.081Z,4.90
2022-09-13T14:25:58.337Z,2.72
2022-09-13T14:29:00.345Z,3.20
2022-09-13T14:32:07.668Z,3.53
2022-09-13T14:35:41.926Z,3.85
2022-09-13T14:38:55.262Z,3.63
2022-09-13T14:42:03.828Z,3.85
2022-09-13T14:45:06.332Z,4.50
2022-09-13T14:48:16.858Z,3.70
2022-09-13T14:51:24.302Z,2.83
2022-09-13T14:54:44.043Z,4.35
2022-09-13T14:57:53.361Z,5.10
2022-09-13T15:01:00.408Z,4.55
2022-09-13T15:04:05.942Z,3.50
2022-09-13T15:07:16.774Z,4.03
2022-09-13T15:10:18.578Z,4.28
2022-09-13T15:13:20.484Z,7.43
2022-09-13T15:16:32.271Z,4.30
2022-09-13T15:19:48.977Z,3.50
2022-09-13T15:22:51.580Z,3.05
2022-09-13T15:26:07.491Z,4.55
2022-09-13T15:29:18.418Z,5.07
2022-09-13T15:32:22.731Z,4.60
2022-09-13T15:35:38.569Z,5.22
2022-09-13T15:39:22.984Z,5.07
2022-09-13T15:42:26.189Z,5.25
2022-09-13T15:45:29.217Z,7.28
2022-09-13T15:48:33.819Z,8.93
2022-09-13T15:51:39.054Z,8.45
2022-09-13T15:54:42.882Z,7.63
2022-09-13T15:57:45.724Z,5.70
2022-09-13T16:00:47.708Z,5.72
2022-09-13T16:03:49.727Z,5.75
2022-09-13T16:06:55.668Z,4.57
2022-09-13T16:09:57.768Z,4.22
2022-09-13T16:12:59.966Z,4.95
2022-09-13T16:16:03.151Z,3.75
2022-09-13T16:19:05.808Z,3.25
2022-09-13T16:22:12.547Z,4.55
2022-09-13T16:25:15.707Z,4.75
2022-09-13T16:28:19.191Z,3.00
2022-09-13T16:31:23.358Z,3.97
2022-09-13T16:34:28.240Z,2.58
2022-09-13T16:37:32.859Z,4.57
2022-09-13T16:40:34.972Z,6.00
2022-09-13T16:43:40.275Z,5.57
2022-09-13T16:46:43.252Z,4.07
2022-09-13T16:49:45.447Z,4.28
2022-09-13T16:52:47.335Z,4.65
2022-09-13T16:55:49.359Z,5.80
2022-09-13T17:01:53.947Z,4.80
2022-09-13T17:04:56.352Z,4.75
2022-09-13T17:07:58.680Z,4.70
2022-09-13T17:11:04.434Z,4.03
2022-09-13T17:14:16.756Z,4.50
2022-09-13T17:17:20.057Z,3.60
2022-09-13T17:20:22.509Z,4.70
2022-09-13T17:23:27.681Z,4.30
2022-09-13T17:26:30.092Z,3.83
2022-09-13T17:29:35.384Z,5.25
2022-09-13T17:32:37.369Z,4.35
2022-09-13T17:35:39.545Z,5.50
2022-09-13T17:38:42.659Z,5.38
2022-09-13T17:41:45.196Z,5.18
2022-09-13T17:44:50.044Z,4.30
2022-09-13T17:47:56.341Z,5.45
2022-09-13T17:51:12.076Z,6.18
2022-09-13T17:54:16.691Z,7.63
2022-09-13T17:57:18.935Z,5.80
2022-09-13T18:00:23.392Z,5.10
2022-09-13T18:03:27.848Z,5.80
2022-09-13T18:06:30.344Z,5.30
2022-09-13T18:09:32.998Z,4.30
2022-09-13T18:12:35.604Z,5.28
2022-09-13T18:15:38.170Z,6.55
2022-09-13T18:18:44.017Z,6.60
2022-09-13T18:21:46.885Z,4.43
2022-09-13T18:24:51.329Z,4.68
2022-09-13T18:27:53.628Z,5.25
2022-09-13T18:30:57.080Z,4.25
2022-09-13T18:34:04.403Z,5.00
2022-09-13T18:37:08.110Z,5.15
2022-09-13T18:40:11.079Z,6.63
2022-09-13T18:43:13.182Z,4.70
2022-09-13T18:46:18.016Z,4.78
2022-09-13T18:49:20.177Z,5.80
2022-09-13T18:52:22.065Z,6.75
2022-09-13T18:55:24.418Z,4.65
2022-09-13T19:01:31.724Z,6.05
2022-09-13T19:04:35.689Z,6.07
2022-09-13T19:07:39.849Z,4.20
2022-09-13T19:10:41.708Z,6.22
2022-09-13T19:16:45.671Z,5.28
2022-09-13T19:19:47.504Z,4.53
2022-09-13T19:25:52.129Z,5.28
2022-09-13T19:28:56.655Z,8.82
2022-09-13T19:31:58.521Z,8.30
2022-09-13T19:38:03.103Z,6.35
2022-09-13T19:41:07.046Z,8.93
2022-09-13T19:44:10.245Z,5.55
2022-09-13T19:50:37.873Z,7.75
2022-09-13T19:53:56.359Z,7.00
2022-09-13T19:56:59.474Z,6.47
2022-09-13T20:03:09.993Z,8.52
2022-09-13T20:06:12.768Z,4.93
2022-09-13T20:09:16.313Z,6.72
2022-09-13T20:12:18.272Z,5.93
2022-09-13T20:18:31.529Z,6.95
2022-09-13T20:21:33.822Z,7.45
2022-09-13T20:24:35.758Z,6.78
2022-09-13T20:27:38.154Z,5.47
2022-09-13T20:30:39.973Z,5.40
2022-09-13T20:33:42.881Z,10.80
2022-09-13T20:36:44.647Z,11.27
2022-09-13T20:39:50.050Z,5.63
2022-09-13T20:42:51.895Z,6.55
2022-09-13T20:45:56.835Z,7.65
2022-09-13T20:48:59.397Z,6.32
2022-09-13T20:52:01.353Z,7.32
2022-09-13T20:58:05.394Z,7.53
2022-09-13T21:01:13.992Z,7.00
2022-09-13T21:04:21.729Z,8.52
2022-09-13T21:07:23.689Z,7.35
2022-09-13T21:13:56.884Z,7.25
2022-09-13T21:16:59.428Z,8.82
2022-09-13T21:20:01.444Z,7.55
2022-09-13T21:26:10.754Z,7.05
2022-09-13T21:29:12.578Z,6.68
2022-09-13T21:32:14.628Z,8.48
2022-09-13T21:38:19.166Z,10.73
2022-09-13T21:41:24.497Z,8.23
2022-09-13T21:44:26.473Z,13.70
2022-09-13T21:47:32.144Z,11.20
2022-09-13T21:50:33.993Z,12.00
2022-09-13T21:53:37.948Z,10.57
2022-09-13T21:56:41.787Z,11.52
2022-09-13T21:59:43.594Z,11.52
2022-09-13T22:02:45.423Z,12.52
2022-09-13T22:09:00.366Z,10.20
2022-09-13T22:12:02.643Z,9.95
2022-09-13T22:15:04.935Z,10.50
2022-09-13T22:18:10.717Z,11.00
2022-09-13T22:21:15.185Z,10.35
2022-09-13T22:24:19.477Z,10.20
2022-09-13T22:27:21.257Z,12.95
2022-09-13T22:30:23.068Z,11.30
2022-09-13T22:33:24.892Z,11.10
2022-09-13T22:36:27.459Z,13.45
2022-09-13T22:39:29.455Z,11.73
2022-09-13T22:45:33.189Z,8.52
2022-09-13T22:48:35.587Z,10.95
2022-09-13T22:51:37.430Z,10.32
2022-09-13T22:54:39.517Z,7.75
2022-09-13T22:57:41.602Z,9.13
2022-09-13T23:00:45.022Z,9.45
2022-09-13T23:03:47.761Z,9.85
2022-09-13T23:06:52.560Z,10.40
2022-09-13T23:09:54.664Z,9.50
2022-09-13T23:16:02.587Z,8.93
2022-09-13T23:19:05.380Z,10.13
2022-09-13T23:22:07.880Z,11.38
2022-09-13T23:25:09.953Z,11.32
2022-09-13T23:31:19.390Z,13.80
2022-09-13T23:34:21.302Z,14.75
2022-09-13T23:37:23.182Z,13.15
2022-09-13T23:40:27.254Z,15.70
2022-09-13T23:43:29.421Z,17.33
2022-09-13T23:46:31.528Z,16.65
2022-09-13T23:49:33.416Z,14.05
2022-09-13T23:52:35.205Z,16.55
2022-09-13T23:55:37.163Z,14.10
2022-09-13T23:58:39.981Z,18.20
